sensor_id;sensor_type;location;lat;lon;timestamp;temperature;humidity
67586;SHT31;55785;47.946;20.540;2023-12-20T00:00:55;-0.80;92.68
67586;SHT31;55785;47.946;20.540;2023-12-20T00:03:20;-0.86;92.75
67586;SHT31;55785;47.946;20.540;2023-12-20T00:05:46;-0.90;92.81
67586;SHT31;55785;47.946;20.540;2023-12-20T00:08:12;-0.89;92.88
67586;SHT31;55785;47.946;20.540;2023-12-20T00:10:37;-0.83;92.93
67586;SHT31;55785;47.946;20.540;2023-12-20T00:13:03;-0.76;93.03
67586;SHT31;55785;47.946;20.540;2023-12-20T00:15:28;-0.77;92.98
67586;SHT31;55785;47.946;20.540;2023-12-20T00:17:54;-0.76;92.99
67586;SHT31;55785;47.946;20.540;2023-12-20T00:20:19;-0.76;93.00
67586;SHT31;55785;47.946;20.540;2023-12-20T00:22:44;-0.72;92.99
67586;SHT31;55785;47.946;20.540;2023-12-20T00:25:10;-0.83;92.94
67586;SHT31;55785;47.946;20.540;2023-12-20T00:27:35;-0.80;92.92
67586;SHT31;55785;47.946;20.540;2023-12-20T00:30:00;-0.79;92.88
67586;SHT31;55785;47.946;20.540;2023-12-20T00:32:26;-0.76;92.83
67586;SHT31;55785;47.946;20.540;2023-12-20T00:34:51;-0.76;92.81
67586;SHT31;55785;47.946;20.540;2023-12-20T00:37:16;-0.74;92.70
67586;SHT31;55785;47.946;20.540;2023-12-20T00:39:42;-0.82;92.67
67586;SHT31;55785;47.946;20.540;2023-12-20T00:42:07;-0.86;92.69
67586;SHT31;55785;47.946;20.540;2023-12-20T00:44:32;-0.86;92.74
67586;SHT31;55785;47.946;20.540;2023-12-20T00:46:58;-0.87;92.59
67586;SHT31;55785;47.946;20.540;2023-12-20T00:49:23;-0.93;92.55
67586;SHT31;55785;47.946;20.540;2023-12-20T00:51:49;-1.03;92.59
67586;SHT31;55785;47.946;20.540;2023-12-20T00:54:14;-1.07;92.71
67586;SHT31;55785;47.946;20.540;2023-12-20T00:56:39;-1.04;92.81
67586;SHT31;55785;47.946;20.540;2023-12-20T00:59:04;-1.05;92.80
67586;SHT31;55785;47.946;20.540;2023-12-20T01:01:30;-1.04;92.83
67586;SHT31;55785;47.946;20.540;2023-12-20T01:03:55;-1.10;92.86
67586;SHT31;55785;47.946;20.540;2023-12-20T01:06:21;-1.11;92.92
67586;SHT31;55785;47.946;20.540;2023-12-20T01:08:46;-1.10;93.00
67586;SHT31;55785;47.946;20.540;2023-12-20T01:11:11;-1.12;93.14
67586;SHT31;55785;47.946;20.540;2023-12-20T01:13:37;-1.07;93.16
67586;SHT31;55785;47.946;20.540;2023-12-20T01:16:02;-1.01;93.09
67586;SHT31;55785;47.946;20.540;2023-12-20T01:18:27;-0.99;92.92
67586;SHT31;55785;47.946;20.540;2023-12-20T01:20:53;-1.03;92.86
67586;SHT31;55785;47.946;20.540;2023-12-20T01:23:18;-1.03;92.87
67586;SHT31;55785;47.946;20.540;2023-12-20T01:25:44;-1.01;92.93
67586;SHT31;55785;47.946;20.540;2023-12-20T01:28:09;-0.99;92.87
67586;SHT31;55785;47.946;20.540;2023-12-20T01:30:34;-0.99;92.93
67586;SHT31;55785;47.946;20.540;2023-12-20T01:33:00;-0.97;92.82
67586;SHT31;55785;47.946;20.540;2023-12-20T01:35:26;-0.97;92.84
67586;SHT31;55785;47.946;20.540;2023-12-20T01:37:51;-1.01;92.68
67586;SHT31;55785;47.946;20.540;2023-12-20T01:40:16;-1.04;92.78
67586;SHT31;55785;47.946;20.540;2023-12-20T01:42:42;-1.07;92.94
67586;SHT31;55785;47.946;20.540;2023-12-20T01:45:07;-1.10;92.80
67586;SHT31;55785;47.946;20.540;2023-12-20T01:47:33;-1.11;92.85
67586;SHT31;55785;47.946;20.540;2023-12-20T01:49:58;-1.10;92.83
67586;SHT31;55785;47.946;20.540;2023-12-20T01:52:25;-1.08;92.83
67586;SHT31;55785;47.946;20.540;2023-12-20T01:54:51;-1.10;92.76
67586;SHT31;55785;47.946;20.540;2023-12-20T01:57:16;-1.12;92.67
67586;SHT31;55785;47.946;20.540;2023-12-20T01:59:42;-1.14;92.64
67586;SHT31;55785;47.946;20.540;2023-12-20T02:02:08;-1.14;92.60
67586;SHT31;55785;47.946;20.540;2023-12-20T02:04:34;-1.11;92.61
67586;SHT31;55785;47.946;20.540;2023-12-20T02:06:59;-1.11;92.51
67586;SHT31;55785;47.946;20.540;2023-12-20T02:09:25;-1.15;92.51
67586;SHT31;55785;47.946;20.540;2023-12-20T02:11:50;-1.17;92.42
67586;SHT31;55785;47.946;20.540;2023-12-20T02:14:16;-1.17;92.39
67586;SHT31;55785;47.946;20.540;2023-12-20T02:16:41;-1.24;92.26
67586;SHT31;55785;47.946;20.540;2023-12-20T02:19:14;-1.20;92.35
67586;SHT31;55785;47.946;20.540;2023-12-20T02:21:39;-1.20;92.41
67586;SHT31;55785;47.946;20.540;2023-12-20T02:24:04;-1.21;92.34
67586;SHT31;55785;47.946;20.540;2023-12-20T02:26:32;-1.24;92.44
67586;SHT31;55785;47.946;20.540;2023-12-20T02:28:58;-1.24;92.43
67586;SHT31;55785;47.946;20.540;2023-12-20T02:31:23;-1.30;92.37
67586;SHT31;55785;47.946;20.540;2023-12-20T02:33:49;-1.32;92.58
67586;SHT31;55785;47.946;20.540;2023-12-20T02:36:14;-1.40;92.35
67586;SHT31;55785;47.946;20.540;2023-12-20T02:38:40;-1.47;92.32
67586;SHT31;55785;47.946;20.540;2023-12-20T02:41:05;-1.47;92.43
67586;SHT31;55785;47.946;20.540;2023-12-20T02:43:30;-1.45;92.55
67586;SHT31;55785;47.946;20.540;2023-12-20T02:45:56;-1.44;92.49
67586;SHT31;55785;47.946;20.540;2023-12-20T02:48:22;-1.40;92.51
67586;SHT31;55785;47.946;20.540;2023-12-20T02:50:48;-1.35;92.50
67586;SHT31;55785;47.946;20.540;2023-12-20T02:53:13;-1.35;92.45
67586;SHT31;55785;47.946;20.540;2023-12-20T02:55:39;-1.38;92.40
67586;SHT31;55785;47.946;20.540;2023-12-20T02:58:04;-1.40;92.41
67586;SHT31;55785;47.946;20.540;2023-12-20T03:00:29;-1.35;92.46
67586;SHT31;55785;47.946;20.540;2023-12-20T03:02:55;-1.37;92.53
67586;SHT31;55785;47.946;20.540;2023-12-20T03:05:20;-1.38;92.54
67586;SHT31;55785;47.946;20.540;2023-12-20T03:07:45;-1.37;92.59
67586;SHT31;55785;47.946;20.540;2023-12-20T03:10:11;-1.35;92.57
67586;SHT31;55785;47.946;20.540;2023-12-20T03:12:36;-1.35;92.59
67586;SHT31;55785;47.946;20.540;2023-12-20T03:15:02;-1.41;92.56
67586;SHT31;55785;47.946;20.540;2023-12-20T03:17:27;-1.42;92.51
67586;SHT31;55785;47.946;20.540;2023-12-20T03:19:52;-1.47;92.29
67586;SHT31;55785;47.946;20.540;2023-12-20T03:22:18;-1.55;92.29
67586;SHT31;55785;47.946;20.540;2023-12-20T03:24:43;-1.55;92.37
67586;SHT31;55785;47.946;20.540;2023-12-20T03:27:08;-1.58;92.34
67586;SHT31;55785;47.946;20.540;2023-12-20T03:29:34;-1.66;92.32
67586;SHT31;55785;47.946;20.540;2023-12-20T03:31:59;-1.73;92.46
67586;SHT31;55785;47.946;20.540;2023-12-20T03:34:25;-1.70;92.54
67586;SHT31;55785;47.946;20.540;2023-12-20T03:36:50;-1.73;92.61
67586;SHT31;55785;47.946;20.540;2023-12-20T03:39:15;-1.72;92.70
67586;SHT31;55785;47.946;20.540;2023-12-20T03:41:41;-1.69;92.76
67586;SHT31;55785;47.946;20.540;2023-12-20T03:44:06;-1.80;92.78
67586;SHT31;55785;47.946;20.540;2023-12-20T03:46:31;-1.94;92.99
67586;SHT31;55785;47.946;20.540;2023-12-20T03:48:57;-2.06;93.21
67586;SHT31;55785;47.946;20.540;2023-12-20T03:51:22;-2.10;93.26
67586;SHT31;55785;47.946;20.540;2023-12-20T03:53:47;-2.10;93.31
67586;SHT31;55785;47.946;20.540;2023-12-20T03:56:13;-2.01;93.40
67586;SHT31;55785;47.946;20.540;2023-12-20T03:58:38;-1.96;93.44
67586;SHT31;55785;47.946;20.540;2023-12-20T04:01:09;-1.89;93.40
67586;SHT31;55785;47.946;20.540;2023-12-20T04:03:34;-1.90;93.29
67586;SHT31;55785;47.946;20.540;2023-12-20T04:06:00;-1.91;93.25
67586;SHT31;55785;47.946;20.540;2023-12-20T04:08:25;-1.97;93.27
67586;SHT31;55785;47.946;20.540;2023-12-20T04:10:50;-2.00;93.26
67586;SHT31;55785;47.946;20.540;2023-12-20T04:13:16;-1.96;93.37
67586;SHT31;55785;47.946;20.540;2023-12-20T04:15:41;-1.94;93.24
67586;SHT31;55785;47.946;20.540;2023-12-20T04:18:06;-1.94;93.20
67586;SHT31;55785;47.946;20.540;2023-12-20T04:20:32;-2.01;93.25
67586;SHT31;55785;47.946;20.540;2023-12-20T04:22:57;-1.99;93.20
67586;SHT31;55785;47.946;20.540;2023-12-20T04:25:22;-1.90;93.30
67586;SHT31;55785;47.946;20.540;2023-12-20T04:27:48;-1.89;93.21
67586;SHT31;55785;47.946;20.540;2023-12-20T04:30:13;-1.83;93.17
67586;SHT31;55785;47.946;20.540;2023-12-20T04:32:38;-1.80;93.00
67586;SHT31;55785;47.946;20.540;2023-12-20T04:35:04;-1.83;92.99
67586;SHT31;55785;47.946;20.540;2023-12-20T04:37:30;-1.80;93.12
67586;SHT31;55785;47.946;20.540;2023-12-20T04:39:55;-1.82;93.04
67586;SHT31;55785;47.946;20.540;2023-12-20T04:42:20;-1.78;93.07
67586;SHT31;55785;47.946;20.540;2023-12-20T04:44:46;-1.69;93.17
67586;SHT31;55785;47.946;20.540;2023-12-20T04:47:11;-1.70;93.07
67586;SHT31;55785;47.946;20.540;2023-12-20T04:49:36;-1.76;92.98
67586;SHT31;55785;47.946;20.540;2023-12-20T04:52:02;-1.87;92.85
67586;SHT31;55785;47.946;20.540;2023-12-20T04:54:27;-1.89;92.96
67586;SHT31;55785;47.946;20.540;2023-12-20T04:56:52;-1.82;93.03
67586;SHT31;55785;47.946;20.540;2023-12-20T04:59:18;-1.83;92.93
67586;SHT31;55785;47.946;20.540;2023-12-20T05:01:43;-1.83;92.91
67586;SHT31;55785;47.946;20.540;2023-12-20T05:04:08;-1.89;92.88
67586;SHT31;55785;47.946;20.540;2023-12-20T05:06:34;-1.91;92.91
67586;SHT31;55785;47.946;20.540;2023-12-20T05:08:59;-1.93;92.86
67586;SHT31;55785;47.946;20.540;2023-12-20T05:11:25;-1.96;92.83
67586;SHT31;55785;47.946;20.540;2023-12-20T05:13:50;-1.94;92.83
67586;SHT31;55785;47.946;20.540;2023-12-20T05:16:15;-1.99;92.85
67586;SHT31;55785;47.946;20.540;2023-12-20T05:18:41;-1.96;92.89
67586;SHT31;55785;47.946;20.540;2023-12-20T05:21:06;-1.97;92.83
67586;SHT31;55785;47.946;20.540;2023-12-20T05:23:31;-1.96;92.90
67586;SHT31;55785;47.946;20.540;2023-12-20T05:25:57;-1.97;92.81
67586;SHT31;55785;47.946;20.540;2023-12-20T05:28:22;-1.97;92.73
67586;SHT31;55785;47.946;20.540;2023-12-20T05:30:48;-2.01;92.77
67586;SHT31;55785;47.946;20.540;2023-12-20T05:33:13;-2.03;92.80
67586;SHT31;55785;47.946;20.540;2023-12-20T05:35:38;-2.01;92.94
67586;SHT31;55785;47.946;20.540;2023-12-20T05:38:04;-1.97;92.84
67586;SHT31;55785;47.946;20.540;2023-12-20T05:40:29;-2.04;92.75
67586;SHT31;55785;47.946;20.540;2023-12-20T05:42:54;-2.07;92.79
67586;SHT31;55785;47.946;20.540;2023-12-20T05:45:20;-2.17;92.85
67586;SHT31;55785;47.946;20.540;2023-12-20T05:47:45;-2.13;92.86
67586;SHT31;55785;47.946;20.540;2023-12-20T05:50:10;-2.26;92.68
67586;SHT31;55785;47.946;20.540;2023-12-20T05:52:36;-2.30;92.75
67586;SHT31;55785;47.946;20.540;2023-12-20T05:55:01;-2.38;92.88
67586;SHT31;55785;47.946;20.540;2023-12-20T05:57:27;-2.38;92.93
67586;SHT31;55785;47.946;20.540;2023-12-20T05:59:53;-2.44;92.98
67586;SHT31;55785;47.946;20.540;2023-12-20T06:02:18;-2.40;92.97
67586;SHT31;55785;47.946;20.540;2023-12-20T06:04:44;-2.41;92.92
67586;SHT31;55785;47.946;20.540;2023-12-20T06:07:12;-2.48;92.93
67586;SHT31;55785;47.946;20.540;2023-12-20T06:09:38;-2.42;92.96
67586;SHT31;55785;47.946;20.540;2023-12-20T06:12:04;-2.38;92.95
67586;SHT31;55785;47.946;20.540;2023-12-20T06:14:29;-2.45;92.88
67586;SHT31;55785;47.946;20.540;2023-12-20T06:16:55;-2.49;92.86
67586;SHT31;55785;47.946;20.540;2023-12-20T06:19:20;-2.41;92.81
67586;SHT31;55785;47.946;20.540;2023-12-20T06:21:45;-2.52;92.80
67586;SHT31;55785;47.946;20.540;2023-12-20T06:24:11;-2.51;92.90
67586;SHT31;55785;47.946;20.540;2023-12-20T06:26:36;-2.49;92.96
67586;SHT31;55785;47.946;20.540;2023-12-20T06:29:01;-2.44;92.79
67586;SHT31;55785;47.946;20.540;2023-12-20T06:31:27;-2.42;92.76
67586;SHT31;55785;47.946;20.540;2023-12-20T06:33:52;-2.36;92.72
67586;SHT31;55785;47.946;20.540;2023-12-20T06:36:18;-2.36;92.57
67586;SHT31;55785;47.946;20.540;2023-12-20T06:38:43;-2.37;92.47
67586;SHT31;55785;47.946;20.540;2023-12-20T06:41:08;-2.36;92.34
67586;SHT31;55785;47.946;20.540;2023-12-20T06:43:34;-2.34;92.36
67586;SHT31;55785;47.946;20.540;2023-12-20T06:46:02;-2.36;92.34
67586;SHT31;55785;47.946;20.540;2023-12-20T06:48:28;-2.36;92.34
67586;SHT31;55785;47.946;20.540;2023-12-20T06:50:53;-2.31;92.27
67586;SHT31;55785;47.946;20.540;2023-12-20T06:53:21;-2.37;92.27
67586;SHT31;55785;47.946;20.540;2023-12-20T06:55:47;-2.41;92.32
67586;SHT31;55785;47.946;20.540;2023-12-20T06:58:12;-2.38;92.32
67586;SHT31;55785;47.946;20.540;2023-12-20T07:00:37;-2.42;92.40
67586;SHT31;55785;47.946;20.540;2023-12-20T07:03:03;-2.42;92.66
67586;SHT31;55785;47.946;20.540;2023-12-20T07:05:28;-2.41;92.50
67586;SHT31;55785;47.946;20.540;2023-12-20T07:07:54;-2.37;92.51
67586;SHT31;55785;47.946;20.540;2023-12-20T07:10:19;-2.36;92.50
67586;SHT31;55785;47.946;20.540;2023-12-20T07:12:44;-2.30;92.48
67586;SHT31;55785;47.946;20.540;2023-12-20T07:15:10;-2.30;92.49
67586;SHT31;55785;47.946;20.540;2023-12-20T07:17:36;-2.24;92.46
67586;SHT31;55785;47.946;20.540;2023-12-20T07:20:01;-2.34;92.28
67586;SHT31;55785;47.946;20.540;2023-12-20T07:22:27;-2.37;92.32
67586;SHT31;55785;47.946;20.540;2023-12-20T07:24:52;-2.34;92.44
67586;SHT31;55785;47.946;20.540;2023-12-20T07:27:18;-2.33;92.58
67586;SHT31;55785;47.946;20.540;2023-12-20T07:29:43;-2.41;92.40
67586;SHT31;55785;47.946;20.540;2023-12-20T07:32:08;-2.41;92.50
67586;SHT31;55785;47.946;20.540;2023-12-20T07:34:34;-2.34;92.56
67586;SHT31;55785;47.946;20.540;2023-12-20T07:36:59;-2.37;92.41
67586;SHT31;55785;47.946;20.540;2023-12-20T07:39:24;-2.45;92.43
67586;SHT31;55785;47.946;20.540;2023-12-20T07:41:50;-2.42;92.54
67586;SHT31;55785;47.946;20.540;2023-12-20T07:44:15;-2.38;92.63
67586;SHT31;55785;47.946;20.540;2023-12-20T07:46:40;-2.37;92.60
67586;SHT31;55785;47.946;20.540;2023-12-20T07:49:06;-2.30;92.55
67586;SHT31;55785;47.946;20.540;2023-12-20T07:51:34;-2.26;92.55
67586;SHT31;55785;47.946;20.540;2023-12-20T07:53:59;-2.19;92.55
67586;SHT31;55785;47.946;20.540;2023-12-20T07:56:24;-2.17;92.53
67586;SHT31;55785;47.946;20.540;2023-12-20T07:58:50;-2.10;92.50
67586;SHT31;55785;47.946;20.540;2023-12-20T08:01:16;-2.01;92.50
67586;SHT31;55785;47.946;20.540;2023-12-20T08:03:41;-2.01;92.60
67586;SHT31;55785;47.946;20.540;2023-12-20T08:06:06;-2.03;92.47
67586;SHT31;55785;47.946;20.540;2023-12-20T08:08:32;-1.99;92.59
67586;SHT31;55785;47.946;20.540;2023-12-20T08:10:57;-1.91;92.66
67586;SHT31;55785;47.946;20.540;2023-12-20T08:13:23;-1.85;92.53
67586;SHT31;55785;47.946;20.540;2023-12-20T08:15:48;-1.79;92.61
67586;SHT31;55785;47.946;20.540;2023-12-20T08:18:13;-1.70;92.61
67586;SHT31;55785;47.946;20.540;2023-12-20T08:20:39;-1.73;92.50
67586;SHT31;55785;47.946;20.540;2023-12-20T08:23:04;-1.72;92.51
67586;SHT31;55785;47.946;20.540;2023-12-20T08:25:29;-1.75;92.43
67586;SHT31;55785;47.946;20.540;2023-12-20T08:27:55;-1.78;92.38
67586;SHT31;55785;47.946;20.540;2023-12-20T08:30:20;-1.76;92.45
67586;SHT31;55785;47.946;20.540;2023-12-20T08:32:45;-1.70;92.50
67586;SHT31;55785;47.946;20.540;2023-12-20T08:35:11;-1.65;92.43
67586;SHT31;55785;47.946;20.540;2023-12-20T08:37:36;-1.66;92.46
67586;SHT31;55785;47.946;20.540;2023-12-20T08:40:02;-1.70;92.46
67586;SHT31;55785;47.946;20.540;2023-12-20T08:42:27;-1.75;92.62
67586;SHT31;55785;47.946;20.540;2023-12-20T08:44:52;-1.72;92.74
67586;SHT31;55785;47.946;20.540;2023-12-20T08:47:18;-1.69;92.81
67586;SHT31;55785;47.946;20.540;2023-12-20T08:49:43;-1.65;92.86
67586;SHT31;55785;47.946;20.540;2023-12-20T08:52:08;-1.62;92.81
67586;SHT31;55785;47.946;20.540;2023-12-20T08:54:34;-1.62;92.74
67586;SHT31;55785;47.946;20.540;2023-12-20T08:56:59;-1.62;92.78
67586;SHT31;55785;47.946;20.540;2023-12-20T08:59:24;-1.55;92.76
67586;SHT31;55785;47.946;20.540;2023-12-20T09:01:50;-1.47;92.75
67586;SHT31;55785;47.946;20.540;2023-12-20T09:04:15;-1.42;92.57
67586;SHT31;55785;47.946;20.540;2023-12-20T09:06:40;-1.47;92.42
67586;SHT31;55785;47.946;20.540;2023-12-20T09:09:06;-1.45;92.51
67586;SHT31;55785;47.946;20.540;2023-12-20T09:11:31;-1.41;92.46
67586;SHT31;55785;47.946;20.540;2023-12-20T09:13:56;-1.44;92.33
67586;SHT31;55785;47.946;20.540;2023-12-20T09:16:22;-1.38;92.29
67586;SHT31;55785;47.946;20.540;2023-12-20T09:18:47;-1.41;92.32
67586;SHT31;55785;47.946;20.540;2023-12-20T09:21:13;-1.34;92.37
67586;SHT31;55785;47.946;20.540;2023-12-20T09:23:38;-1.31;92.32
67586;SHT31;55785;47.946;20.540;2023-12-20T09:26:03;-1.28;92.34
67586;SHT31;55785;47.946;20.540;2023-12-20T09:28:29;-1.20;92.54
67586;SHT31;55785;47.946;20.540;2023-12-20T09:30:54;-1.11;92.55
67586;SHT31;55785;47.946;20.540;2023-12-20T09:33:20;-1.04;92.50
67586;SHT31;55785;47.946;20.540;2023-12-20T09:35:45;-0.97;92.62
67586;SHT31;55785;47.946;20.540;2023-12-20T09:38:10;-0.93;92.56
67586;SHT31;55785;47.946;20.540;2023-12-20T09:40:36;-0.92;92.52
67586;SHT31;55785;47.946;20.540;2023-12-20T09:43:11;-0.84;92.49
67586;SHT31;55785;47.946;20.540;2023-12-20T09:45:37;-0.86;92.49
67586;SHT31;55785;47.946;20.540;2023-12-20T09:48:04;-0.84;92.57
67586;SHT31;55785;47.946;20.540;2023-12-20T09:50:30;-0.79;92.64
67586;SHT31;55785;47.946;20.540;2023-12-20T09:52:56;-0.80;92.62
67586;SHT31;55785;47.946;20.540;2023-12-20T09:55:25;-0.80;92.58
67586;SHT31;55785;47.946;20.540;2023-12-20T09:57:50;-0.77;92.58
67586;SHT31;55785;47.946;20.540;2023-12-20T10:00:16;-0.74;92.53
67586;SHT31;55785;47.946;20.540;2023-12-20T10:03:02;-0.74;92.43
67586;SHT31;55785;47.946;20.540;2023-12-20T10:05:29;-0.79;92.29
67586;SHT31;55785;47.946;20.540;2023-12-20T10:07:54;-0.84;92.48
67586;SHT31;55785;47.946;20.540;2023-12-20T10:10:20;-0.79;92.54
67586;SHT31;55785;47.946;20.540;2023-12-20T10:13:21;-0.80;92.46
67586;SHT31;55785;47.946;20.540;2023-12-20T10:15:46;-0.80;92.60
67586;SHT31;55785;47.946;20.540;2023-12-20T10:18:12;-0.90;92.90
67586;SHT31;55785;47.946;20.540;2023-12-20T10:20:40;-0.92;92.78
67586;SHT31;55785;47.946;20.540;2023-12-20T10:23:05;-0.84;93.19
67586;SHT31;55785;47.946;20.540;2023-12-20T10:25:31;-0.79;93.11
67586;SHT31;55785;47.946;20.540;2023-12-20T10:28:13;-0.77;93.16
67586;SHT31;55785;47.946;20.540;2023-12-20T10:30:45;-0.72;93.23
67586;SHT31;55785;47.946;20.540;2023-12-20T10:33:10;-0.65;93.42
67586;SHT31;55785;47.946;20.540;2023-12-20T10:35:37;-0.52;93.40
67586;SHT31;55785;47.946;20.540;2023-12-20T10:38:05;-0.59;93.38
67586;SHT31;55785;47.946;20.540;2023-12-20T10:40:34;-0.61;93.16
67586;SHT31;55785;47.946;20.540;2023-12-20T10:43:00;-0.53;93.54
67586;SHT31;55785;47.946;20.540;2023-12-20T10:45:26;-0.46;93.58
67586;SHT31;55785;47.946;20.540;2023-12-20T10:47:52;-0.38;93.67
67586;SHT31;55785;47.946;20.540;2023-12-20T10:50:19;-0.25;93.72
67586;SHT31;55785;47.946;20.540;2023-12-20T10:52:45;-0.17;93.88
67586;SHT31;55785;47.946;20.540;2023-12-20T10:55:12;-0.08;93.82
67586;SHT31;55785;47.946;20.540;2023-12-20T10:57:38;0.00;93.77
67586;SHT31;55785;47.946;20.540;2023-12-20T11:00:04;0.05;93.96
67586;SHT31;55785;47.946;20.540;2023-12-20T11:02:32;0.11;93.67
67586;SHT31;55785;47.946;20.540;2023-12-20T11:05:10;0.13;93.78
67586;SHT31;55785;47.946;20.540;2023-12-20T11:07:47;0.27;93.79
67586;SHT31;55785;47.946;20.540;2023-12-20T11:10:24;0.36;93.75
67586;SHT31;55785;47.946;20.540;2023-12-20T11:15:16;0.34;93.54
67586;SHT31;55785;47.946;20.540;2023-12-20T11:17:44;0.44;93.59
67586;SHT31;55785;47.946;20.540;2023-12-20T11:20:10;0.51;93.59
67586;SHT31;55785;47.946;20.540;2023-12-20T11:22:36;0.62;93.68
67586;SHT31;55785;47.946;20.540;2023-12-20T11:25:07;0.69;93.64
67586;SHT31;55785;47.946;20.540;2023-12-20T11:27:32;0.68;93.58
67586;SHT31;55785;47.946;20.540;2023-12-20T11:29:58;0.75;93.60
67586;SHT31;55785;47.946;20.540;2023-12-20T11:34:51;0.84;93.61
67586;SHT31;55785;47.946;20.540;2023-12-20T11:37:16;0.79;93.57
67586;SHT31;55785;47.946;20.540;2023-12-20T11:39:43;0.81;93.59
67586;SHT31;55785;47.946;20.540;2023-12-20T11:42:09;0.88;93.67
67586;SHT31;55785;47.946;20.540;2023-12-20T11:44:36;0.93;93.66
67586;SHT31;55785;47.946;20.540;2023-12-20T11:47:02;0.97;93.62
67586;SHT31;55785;47.946;20.540;2023-12-20T11:49:27;0.97;93.55
67586;SHT31;55785;47.946;20.540;2023-12-20T11:51:53;1.07;93.63
67586;SHT31;55785;47.946;20.540;2023-12-20T11:54:18;1.10;93.63
67586;SHT31;55785;47.946;20.540;2023-12-20T11:56:43;1.24;93.48
67586;SHT31;55785;47.946;20.540;2023-12-20T11:59:09;1.34;93.49
67586;SHT31;55785;47.946;20.540;2023-12-20T12:01:34;1.34;93.35
67586;SHT31;55785;47.946;20.540;2023-12-20T12:04:07;1.34;93.32
67586;SHT31;55785;47.946;20.540;2023-12-20T12:06:32;1.42;93.33
67586;SHT31;55785;47.946;20.540;2023-12-20T12:08:58;1.42;93.29
67586;SHT31;55785;47.946;20.540;2023-12-20T12:11:23;1.48;93.19
67586;SHT31;55785;47.946;20.540;2023-12-20T12:13:48;1.57;93.23
67586;SHT31;55785;47.946;20.540;2023-12-20T12:16:18;1.54;93.25
67586;SHT31;55785;47.946;20.540;2023-12-20T12:18:43;1.64;93.20
67586;SHT31;55785;47.946;20.540;2023-12-20T12:21:09;1.68;93.20
67586;SHT31;55785;47.946;20.540;2023-12-20T12:23:34;1.78;93.12
67586;SHT31;55785;47.946;20.540;2023-12-20T12:25:59;1.78;93.25
67586;SHT31;55785;47.946;20.540;2023-12-20T12:28:28;1.79;93.07
67586;SHT31;55785;47.946;20.540;2023-12-20T12:30:59;1.79;92.93
67586;SHT31;55785;47.946;20.540;2023-12-20T12:33:28;1.79;92.86
67586;SHT31;55785;47.946;20.540;2023-12-20T12:35:53;1.78;92.92
67586;SHT31;55785;47.946;20.540;2023-12-20T12:38:24;1.85;93.04
67586;SHT31;55785;47.946;20.540;2023-12-20T12:40:50;1.85;93.00
67586;SHT31;55785;47.946;20.540;2023-12-20T12:43:15;1.89;92.99
67586;SHT31;55785;47.946;20.540;2023-12-20T12:45:40;2.02;92.99
67586;SHT31;55785;47.946;20.540;2023-12-20T12:48:06;2.11;92.93
67586;SHT31;55785;47.946;20.540;2023-12-20T12:50:32;2.18;93.14
67586;SHT31;55785;47.946;20.540;2023-12-20T12:52:57;2.23;92.88
67586;SHT31;55785;47.946;20.540;2023-12-20T12:55:22;2.12;92.55
67586;SHT31;55785;47.946;20.540;2023-12-20T12:57:48;2.01;92.76
67586;SHT31;55785;47.946;20.540;2023-12-20T13:00:13;2.06;92.86
67586;SHT31;55785;47.946;20.540;2023-12-20T13:02:39;2.09;93.06
67586;SHT31;55785;47.946;20.540;2023-12-20T13:05:05;2.09;93.06
67586;SHT31;55785;47.946;20.540;2023-12-20T13:07:30;2.06;92.96
67586;SHT31;55785;47.946;20.540;2023-12-20T13:09:55;2.11;93.00
67586;SHT31;55785;47.946;20.540;2023-12-20T13:12:21;2.12;93.17
67586;SHT31;55785;47.946;20.540;2023-12-20T13:14:47;2.06;92.92
67586;SHT31;55785;47.946;20.540;2023-12-20T13:17:12;2.01;92.93
67586;SHT31;55785;47.946;20.540;2023-12-20T13:19:37;1.92;93.04
67586;SHT31;55785;47.946;20.540;2023-12-20T13:22:03;1.75;93.67
67586;SHT31;55785;47.946;20.540;2023-12-20T13:24:28;1.77;93.81
67586;SHT31;55785;47.946;20.540;2023-12-20T13:26:54;1.81;93.72
67586;SHT31;55785;47.946;20.540;2023-12-20T13:29:19;1.85;93.62
67586;SHT31;55785;47.946;20.540;2023-12-20T13:31:45;1.86;93.55
67586;SHT31;55785;47.946;20.540;2023-12-20T13:34:10;1.89;93.55
67586;SHT31;55785;47.946;20.540;2023-12-20T13:36:35;1.98;93.57
67586;SHT31;55785;47.946;20.540;2023-12-20T13:39:01;2.02;93.51
67586;SHT31;55785;47.946;20.540;2023-12-20T13:41:26;2.06;93.40
67586;SHT31;55785;47.946;20.540;2023-12-20T13:43:51;1.99;93.35
67586;SHT31;55785;47.946;20.540;2023-12-20T13:46:17;2.05;93.42
67586;SHT31;55785;47.946;20.540;2023-12-20T13:48:42;2.09;93.35
67586;SHT31;55785;47.946;20.540;2023-12-20T13:51:07;2.03;93.27
67586;SHT31;55785;47.946;20.540;2023-12-20T13:53:33;1.95;93.38
67586;SHT31;55785;47.946;20.540;2023-12-20T13:55:58;2.02;93.39
67586;SHT31;55785;47.946;20.540;2023-12-20T13:58:23;2.01;93.38
67586;SHT31;55785;47.946;20.540;2023-12-20T14:00:49;1.99;93.33
67586;SHT31;55785;47.946;20.540;2023-12-20T14:03:14;1.99;93.28
67586;SHT31;55785;47.946;20.540;2023-12-20T14:05:40;1.92;93.27
67586;SHT31;55785;47.946;20.540;2023-12-20T14:08:06;1.84;93.23
67586;SHT31;55785;47.946;20.540;2023-12-20T14:10:31;1.61;93.34
67586;SHT31;55785;47.946;20.540;2023-12-20T14:12:56;1.57;93.42
67586;SHT31;55785;47.946;20.540;2023-12-20T14:15:22;1.54;93.42
67586;SHT31;55785;47.946;20.540;2023-12-20T14:17:47;1.57;93.42
67586;SHT31;55785;47.946;20.540;2023-12-20T14:20:13;1.60;93.37
67586;SHT31;55785;47.946;20.540;2023-12-20T14:22:38;1.57;93.33
67586;SHT31;55785;47.946;20.540;2023-12-20T14:25:04;1.58;93.15
67586;SHT31;55785;47.946;20.540;2023-12-20T14:27:29;1.63;93.23
67586;SHT31;55785;47.946;20.540;2023-12-20T14:29:55;1.67;93.13
67586;SHT31;55785;47.946;20.540;2023-12-20T14:32:20;1.72;93.11
67586;SHT31;55785;47.946;20.540;2023-12-20T14:34:45;1.60;92.98
67586;SHT31;55785;47.946;20.540;2023-12-20T14:37:11;1.54;93.05
67586;SHT31;55785;47.946;20.540;2023-12-20T14:39:37;1.58;93.10
67586;SHT31;55785;47.946;20.540;2023-12-20T14:42:02;1.53;93.04
67586;SHT31;55785;47.946;20.540;2023-12-20T14:44:28;1.34;92.94
67586;SHT31;55785;47.946;20.540;2023-12-20T14:46:53;1.19;93.13
67586;SHT31;55785;47.946;20.540;2023-12-20T14:49:18;1.13;93.28
67586;SHT31;55785;47.946;20.540;2023-12-20T14:51:44;1.07;93.48
67586;SHT31;55785;47.946;20.540;2023-12-20T14:54:09;1.10;93.64
67586;SHT31;55785;47.946;20.540;2023-12-20T14:56:35;1.16;93.56
67586;SHT31;55785;47.946;20.540;2023-12-20T14:59:00;1.16;93.53
67586;SHT31;55785;47.946;20.540;2023-12-20T15:01:25;1.15;93.54
67586;SHT31;55785;47.946;20.540;2023-12-20T15:03:51;1.17;93.54
67586;SHT31;55785;47.946;20.540;2023-12-20T15:06:16;1.09;93.56
67586;SHT31;55785;47.946;20.540;2023-12-20T15:08:41;1.05;93.66
67586;SHT31;55785;47.946;20.540;2023-12-20T15:11:07;1.07;93.75
67586;SHT31;55785;47.946;20.540;2023-12-20T15:13:32;1.07;93.91
67586;SHT31;55785;47.946;20.540;2023-12-20T15:15:58;1.19;93.87